createdAt,value
2023-02-18T00:02:13.700Z,96.82
2023-02-18T00:05:16.873Z,95.98
2023-02-18T00:08:20.165Z,95.65
2023-02-18T00:11:23.260Z,94.32
2023-02-18T00:14:26.513Z,93.70
2023-02-18T00:17:30.724Z,93.29
2023-02-18T00:20:36.678Z,93.37
2023-02-18T00:23:39.362Z,92.96
2023-02-18T00:26:42.872Z,92.49
2023-02-18T00:29:46.633Z,91.88
2023-02-18T00:32:49.223Z,91.48
2023-02-18T00:35:53.241Z,91.66
2023-02-18T00:38:57.284Z,91.69
2023-02-18T00:42:04.032Z,91.92
2023-02-18T00:45:08.416Z,91.92
2023-02-18T00:48:12.358Z,91.60
2023-02-18T00:51:18.117Z,91.67
2023-02-18T00:54:22.245Z,91.24
2023-02-18T00:57:30.673Z,91.14
2023-02-18T01:00:36.714Z,91.10
2023-02-18T01:03:42.558Z,90.39
2023-02-18T01:06:47.103Z,90.59
2023-02-18T01:09:50.540Z,90.51
2023-02-18T01:12:57.495Z,89.97
2023-02-18T01:16:00.892Z,89.78
2023-02-18T01:19:03.808Z,89.33
2023-02-18T01:22:07.183Z,89.65
2023-02-18T01:25:16.075Z,88.80
2023-02-18T01:28:22.584Z,88.53
2023-02-18T01:31:25.946Z,88.47
2023-02-18T01:34:28.669Z,87.40
2023-02-18T01:37:32.684Z,87.14
2023-02-18T01:40:38.540Z,86.57
2023-02-18T01:43:41.479Z,86.13
2023-02-18T01:46:49.927Z,85.48
2023-02-18T01:49:55.189Z,84.14
2023-02-18T01:52:58.897Z,83.65
2023-02-18T01:56:06.156Z,82.87
2023-02-18T01:59:15.016Z,81.75
2023-02-18T02:02:22.756Z,80.43
2023-02-18T02:05:32.160Z,79.35
2023-02-18T02:08:42.119Z,79.13
2023-02-18T02:11:53.194Z,79.39
2023-02-18T02:15:14.599Z,78.85
2023-02-18T02:18:43.209Z,78.74
2023-02-18T02:22:08.427Z,78.94
2023-02-18T02:25:22.371Z,77.67
2023-02-18T02:28:31.539Z,77.64
2023-02-18T02:31:58.025Z,76.91
2023-02-18T02:35:17.115Z,76.92
2023-02-18T02:38:27.457Z,76.32
2023-02-18T02:41:45.424Z,75.58
2023-02-18T02:45:07.168Z,75.51
2023-02-18T02:48:32.807Z,76.02
2023-02-18T02:51:42.427Z,76.13
2023-02-18T02:54:48.652Z,76.43
2023-02-18T02:58:03.755Z,76.91
2023-02-18T03:01:30.208Z,76.03
2023-02-18T03:04:38.638Z,75.63
2023-02-18T03:07:42.602Z,75.13
2023-02-18T03:11:05.706Z,76.19
2023-02-18T03:14:15.422Z,75.52
2023-02-18T03:17:37.430Z,76.32
2023-02-18T03:20:54.821Z,76.25
2023-02-18T03:24:03.554Z,75.56
2023-02-18T03:27:13.054Z,74.81
2023-02-18T03:30:31.878Z,74.85
2023-02-18T03:33:40.904Z,75.30
2023-02-18T03:36:44.197Z,76.03
2023-02-18T03:39:52.703Z,76.53
2023-02-18T03:42:55.127Z,76.56
2023-02-18T03:46:01.022Z,77.11
2023-02-18T03:49:05.269Z,77.88
2023-02-18T03:52:07.969Z,78.49
2023-02-18T03:55:13.952Z,78.28
2023-02-18T03:58:17.848Z,78.60
2023-02-18T04:01:22.300Z,79.29
2023-02-18T04:04:28.555Z,79.16
2023-02-18T04:07:37.046Z,79.40
2023-02-18T04:10:39.811Z,79.47
2023-02-18T04:13:50.993Z,79.11
2023-02-18T04:16:59.616Z,79.68
2023-02-18T04:20:06.601Z,79.78
2023-02-18T04:23:12.603Z,80.07
2023-02-18T04:26:17.068Z,80.57
2023-02-18T04:29:19.585Z,80.92
2023-02-18T04:32:24.091Z,81.14
2023-02-18T04:35:28.469Z,81.48
2023-02-18T04:38:31.670Z,81.81
2023-02-18T04:41:34.199Z,82.92
2023-02-18T04:44:39.983Z,82.37
2023-02-18T04:47:42.688Z,83.08
2023-02-18T04:50:46.552Z,83.50
2023-02-18T04:53:53.531Z,84.21
2023-02-18T04:56:58.330Z,84.29
2023-02-18T05:00:03.204Z,85.51
2023-02-18T05:03:09.631Z,88.59
2023-02-18T05:06:13.486Z,89.14
2023-02-18T05:09:23.236Z,89.87
2023-02-18T05:12:25.817Z,91.15
2023-02-18T05:15:31.738Z,91.60
2023-02-18T05:18:36.701Z,92.98
2023-02-18T05:21:46.394Z,93.96
2023-02-18T05:24:50.791Z,94.37
2023-02-18T05:27:57.211Z,93.62
2023-02-18T05:31:06.152Z,92.91
2023-02-18T05:34:16.464Z,93.18
2023-02-18T05:37:20.268Z,93.26
2023-02-18T05:40:24.791Z,91.94
2023-02-18T05:43:29.754Z,91.45
2023-02-18T05:46:33.390Z,91.71
2023-02-18T05:49:39.794Z,91.12
2023-02-18T05:52:42.797Z,91.89
2023-02-18T05:55:46.770Z,91.49
2023-02-18T05:58:51.544Z,91.97
2023-02-18T06:01:54.325Z,92.25
2023-02-18T06:05:04.375Z,91.51
2023-02-18T06:08:10.071Z,90.35
2023-02-18T06:11:14.056Z,91.16
2023-02-18T06:14:19.299Z,90.36
2023-02-18T06:17:28.534Z,89.59
2023-02-18T06:20:31.323Z,89.97
2023-02-18T06:23:34.621Z,89.90
2023-02-18T06:26:43.141Z,90.56
2023-02-18T06:29:46.856Z,89.66
2023-02-18T06:32:50.736Z,90.91
2023-02-18T06:36:00.510Z,94.76
2023-02-18T06:39:04.687Z,99.61
2023-02-18T06:42:08.237Z,100.00
2023-02-18T06:45:13.781Z,100.00
2023-02-18T06:48:18.719Z,100.00
2023-02-18T06:51:23.677Z,100.00
2023-02-18T06:54:26.927Z,100.00
2023-02-18T06:57:29.205Z,100.00
2023-02-18T07:00:37.528Z,100.00
2023-02-18T07:03:41.322Z,100.00
2023-02-18T07:06:45.370Z,100.00
2023-02-18T07:09:52.866Z,100.00
2023-02-18T07:13:00.480Z,100.00
2023-02-18T07:16:06.506Z,100.00
2023-02-18T07:19:10.674Z,100.00
2023-02-18T07:22:14.581Z,100.00
2023-02-18T07:25:18.201Z,100.00
2023-02-18T07:28:25.453Z,99.36
2023-02-18T07:31:28.616Z,98.12
2023-02-18T07:34:35.990Z,96.36
2023-02-18T07:37:43.664Z,96.65
2023-02-18T07:40:48.078Z,95.27
2023-02-18T07:43:53.974Z,95.38
2023-02-18T07:46:57.238Z,93.13
2023-02-18T07:49:59.906Z,90.80
2023-02-18T07:53:04.849Z,88.63
2023-02-18T07:56:09.818Z,89.49
2023-02-18T07:59:14.831Z,87.57
2023-02-18T08:02:24.004Z,86.78
2023-02-18T08:05:26.595Z,86.92
2023-02-18T08:08:37.209Z,85.98
2023-02-18T08:11:43.783Z,84.84
2023-02-18T08:14:48.313Z,85.34
2023-02-18T08:17:51.480Z,83.83
2023-02-18T08:20:55.263Z,82.39
2023-02-18T08:23:59.380Z,81.16
2023-02-18T08:27:03.907Z,81.49
2023-02-18T08:30:07.369Z,80.40
2023-02-18T08:33:09.721Z,80.22
2023-02-18T08:36:12.869Z,79.90
2023-02-18T08:39:18.316Z,79.28
2023-02-18T08:42:24.682Z,78.86
2023-02-18T08:45:27.475Z,78.92
2023-02-18T08:48:30.882Z,79.11
2023-02-18T08:51:34.056Z,79.45
2023-02-18T08:54:37.070Z,79.61
2023-02-18T08:57:40.966Z,79.84
2023-02-18T09:00:45.273Z,78.80
2023-02-18T09:03:51.050Z,77.42
2023-02-18T09:06:54.725Z,77.17
2023-02-18T09:09:57.704Z,77.89
2023-02-18T09:13:02.242Z,77.67
2023-02-18T09:16:12.258Z,78.65
2023-02-18T09:19:15.293Z,81.46
2023-02-18T09:22:19.505Z,83.82
2023-02-18T09:25:22.696Z,83.03
2023-02-18T09:28:27.218Z,82.40
2023-02-18T09:31:29.888Z,82.55
2023-02-18T09:34:33.253Z,82.05
2023-02-18T09:37:37.156Z,80.74
2023-02-18T09:40:44.091Z,81.10
2023-02-18T09:43:49.354Z,80.93
2023-02-18T09:46:54.683Z,80.26
2023-02-18T09:49:59.022Z,79.80
2023-02-18T09:53:07.835Z,80.92
2023-02-18T09:56:12.523Z,80.40
2023-02-18T09:59:26.598Z,79.93
2023-02-18T10:02:30.550Z,79.32
2023-02-18T10:05:35.161Z,79.01
2023-02-18T10:08:41.043Z,79.34
2023-02-18T10:11:47.097Z,77.93
2023-02-18T10:14:58.683Z,76.89
2023-02-18T10:18:03.122Z,77.92
2023-02-18T10:21:18.555Z,77.25
2023-02-18T10:24:31.129Z,77.69
2023-02-18T10:27:36.881Z,78.25
2023-02-18T10:30:43.650Z,77.68
2023-02-18T10:33:50.504Z,77.07
2023-02-18T10:36:59.303Z,76.57
2023-02-18T10:40:28.613Z,76.49
2023-02-18T10:43:34.153Z,75.50
2023-02-18T10:46:58.337Z,75.26
2023-02-18T10:50:03.755Z,74.39
2023-02-18T10:53:29.515Z,73.88
2023-02-18T10:56:43.894Z,73.55
2023-02-18T11:00:12.857Z,72.48
2023-02-18T11:03:26.405Z,71.56
2023-02-18T11:06:29.622Z,71.59
2023-02-18T11:09:41.583Z,71.66
2023-02-18T11:12:50.511Z,72.09
2023-02-18T11:15:58.042Z,73.92
2023-02-18T11:19:05.014Z,73.51
2023-02-18T11:22:09.310Z,74.87
2023-02-18T11:25:34.214Z,75.72
2023-02-18T11:28:45.284Z,75.40
2023-02-18T11:31:52.872Z,75.22
2023-02-18T11:34:56.179Z,74.73
2023-02-18T11:38:01.240Z,74.81
2023-02-18T11:41:15.825Z,74.19
2023-02-18T11:44:29.377Z,74.45
2023-02-18T11:47:37.565Z,74.86
2023-02-18T11:50:40.004Z,74.12
2023-02-18T11:54:04.125Z,74.65
2023-02-18T11:57:10.689Z,72.63
2023-02-18T12:00:36.413Z,73.50
2023-02-18T12:03:45.339Z,74.12
2023-02-18T12:06:55.729Z,73.67
2023-02-18T12:10:06.181Z,74.95
2023-02-18T12:13:20.077Z,73.70
2023-02-18T12:16:32.214Z,73.78
2023-02-18T12:19:42.139Z,73.57
2023-02-18T12:22:46.393Z,72.79
2023-02-18T12:25:57.753Z,73.12
2023-02-18T12:29:18.741Z,72.45
2023-02-18T12:32:25.698Z,72.10
2023-02-18T12:35:46.515Z,70.90
2023-02-18T12:39:01.368Z,70.06
2023-02-18T12:42:17.389Z,70.31
2023-02-18T12:45:39.343Z,66.96
2023-02-18T12:49:01.366Z,65.27
2023-02-18T12:52:14.268Z,64.34
2023-02-18T12:55:27.099Z,64.37
2023-02-18T12:58:31.508Z,64.19
2023-02-18T13:01:45.857Z,65.14
2023-02-18T13:05:07.994Z,65.73
2023-02-18T13:08:30.268Z,65.72
2023-02-18T13:11:37.429Z,65.15
2023-02-18T13:14:48.831Z,64.24
2023-02-18T13:17:52.121Z,63.70
2023-02-18T13:20:57.131Z,63.09
2023-02-18T13:24:06.948Z,62.51
2023-02-18T13:27:33.013Z,62.10
2023-02-18T13:30:54.805Z,60.30
2023-02-18T13:34:02.222Z,59.89
2023-02-18T13:37:25.795Z,59.78
2023-02-18T13:40:30.664Z,59.99
2023-02-18T13:43:37.103Z,60.91
2023-02-18T13:46:50.175Z,62.08
2023-02-18T13:49:53.466Z,61.29
2023-02-18T13:53:08.481Z,61.63
2023-02-18T13:56:17.267Z,61.02
2023-02-18T13:59:26.810Z,61.00
2023-02-18T14:02:34.023Z,61.21
2023-02-18T14:05:41.294Z,61.93
2023-02-18T14:08:46.232Z,64.43
2023-02-18T14:11:52.319Z,64.86
2023-02-18T14:14:56.244Z,64.11
2023-02-18T14:18:28.281Z,63.99
2023-02-18T14:21:48.030Z,63.32
2023-02-18T14:24:56.686Z,64.51
2023-02-18T14:28:03.385Z,63.46
2023-02-18T14:31:21.962Z,64.00
2023-02-18T14:34:25.533Z,64.94
2023-02-18T14:37:29.403Z,64.43
2023-02-18T14:40:48.715Z,64.01
2023-02-18T14:44:07.276Z,62.76
2023-02-18T14:47:28.153Z,63.66
2023-02-18T14:50:35.572Z,64.48
2023-02-18T14:53:42.962Z,65.16
2023-02-18T14:56:58.549Z,66.14
2023-02-18T15:00:01.846Z,65.74
2023-02-18T15:03:04.536Z,65.45
2023-02-18T15:06:22.550Z,64.59
2023-02-18T15:09:25.568Z,64.10
2023-02-18T15:12:29.356Z,65.60
2023-02-18T15:15:34.636Z,66.60
2023-02-18T15:18:41.492Z,66.77
2023-02-18T15:21:46.447Z,66.97
2023-02-18T15:24:51.852Z,66.92
2023-02-18T15:27:55.637Z,66.72
2023-02-18T15:31:03.046Z,68.47
2023-02-18T15:34:25.085Z,68.67
2023-02-18T15:37:29.299Z,70.25
2023-02-18T15:40:33.425Z,71.30
2023-02-18T15:43:38.314Z,72.22
2023-02-18T15:46:41.622Z,74.25
2023-02-18T15:50:04.984Z,74.38
2023-02-18T15:53:15.314Z,74.61
2023-02-18T15:56:26.218Z,76.22
2023-02-18T15:59:45.644Z,76.41
2023-02-18T16:02:54.593Z,76.41
2023-02-18T16:06:15.819Z,77.26
2023-02-18T16:09:31.117Z,78.66
2023-02-18T16:12:33.647Z,79.68
2023-02-18T16:15:41.546Z,79.45
2023-02-18T16:18:45.682Z,79.60
2023-02-18T16:21:51.325Z,79.65
2023-02-18T16:25:00.306Z,79.85
2023-02-18T16:28:03.170Z,81.01
2023-02-18T16:31:11.703Z,82.04
2023-02-18T16:34:15.382Z,82.20
2023-02-18T16:37:39.264Z,84.21
2023-02-18T16:40:44.153Z,84.78
2023-02-18T16:43:55.386Z,83.75
2023-02-18T16:47:00.771Z,84.21
2023-02-18T16:50:04.044Z,84.61
2023-02-18T16:53:07.356Z,86.05
2023-02-18T16:56:18.848Z,86.59
2023-02-18T16:59:22.127Z,86.60
2023-02-18T17:02:25.798Z,88.11
2023-02-18T17:05:30.068Z,88.43
2023-02-18T17:08:32.670Z,88.39
2023-02-18T17:11:37.406Z,88.84
2023-02-18T17:14:40.126Z,89.81
2023-02-18T17:17:43.626Z,91.01
2023-02-18T17:20:48.846Z,90.94
2023-02-18T17:23:52.508Z,91.72
2023-02-18T17:26:55.352Z,92.33
2023-02-18T17:29:57.423Z,92.62
2023-02-18T17:33:03.474Z,92.42
2023-02-18T17:36:06.254Z,91.56
2023-02-18T17:39:13.331Z,91.92
2023-02-18T17:42:18.580Z,91.36
2023-02-18T17:45:29.260Z,91.77
2023-02-18T17:48:32.357Z,92.32
2023-02-18T17:51:37.790Z,92.46
2023-02-18T17:54:40.988Z,92.20
2023-02-18T17:57:45.813Z,92.78
2023-02-18T18:00:51.459Z,92.45
2023-02-18T18:03:54.558Z,92.50
2023-02-18T18:06:57.445Z,92.76
2023-02-18T18:10:01.076Z,92.98
2023-02-18T18:13:05.777Z,92.48
2023-02-18T18:16:11.540Z,93.24
2023-02-18T18:19:14.321Z,93.55
2023-02-18T18:22:17.324Z,94.93
2023-02-18T18:25:22.979Z,94.32
2023-02-18T18:28:27.504Z,95.46
2023-02-18T18:31:30.219Z,96.26
2023-02-18T18:34:33.681Z,95.71
2023-02-18T18:37:36.687Z,95.92
2023-02-18T18:40:39.663Z,95.43
2023-02-18T18:43:42.258Z,94.15
2023-02-18T18:46:45.156Z,95.10
2023-02-18T18:49:49.140Z,94.32
2023-02-18T18:52:52.986Z,94.22
2023-02-18T18:55:57.676Z,93.51
2023-02-18T18:59:01.788Z,92.92
2023-02-18T19:02:05.036Z,93.42
2023-02-18T19:05:16.068Z,93.62
2023-02-18T19:08:20.899Z,93.29
2023-02-18T19:11:23.529Z,94.05
2023-02-18T19:14:26.145Z,92.41
2023-02-18T19:17:28.594Z,92.81
2023-02-18T19:20:32.944Z,95.58
2023-02-18T19:23:35.821Z,97.24
2023-02-18T19:26:38.472Z,97.57
2023-02-18T19:29:41.468Z,98.62
2023-02-18T19:32:44.754Z,100.00
2023-02-18T19:35:47.878Z,100.00
2023-02-18T19:38:52.199Z,99.93
2023-02-18T19:41:55.097Z,98.40
2023-02-18T19:44:58.501Z,96.86
2023-02-18T19:48:01.905Z,93.57
2023-02-18T19:51:05.919Z,92.70
2023-02-18T19:54:08.889Z,89.29
2023-02-18T19:57:13.199Z,89.27
2023-02-18T20:00:17.582Z,88.37
2023-02-18T20:03:20.826Z,88.85
2023-02-18T20:06:24.244Z,87.40
2023-02-18T20:09:27.830Z,87.28
2023-02-18T20:12:31.008Z,87.05
2023-02-18T20:15:33.727Z,86.57
2023-02-18T20:18:36.895Z,85.82
2023-02-18T20:21:39.286Z,86.49
2023-02-18T20:24:43.547Z,87.01
2023-02-18T20:27:59.879Z,86.50
2023-02-18T20:31:05.348Z,87.46
2023-02-18T20:34:08.237Z,87.64
2023-02-18T20:37:11.124Z,87.43
2023-02-18T20:40:13.551Z,86.50
2023-02-18T20:43:15.973Z,86.50
2023-02-18T20:46:21.187Z,87.26
2023-02-18T20:49:24.008Z,86.62
2023-02-18T20:52:26.646Z,86.24
2023-02-18T20:55:30.306Z,86.40
2023-02-18T20:58:33.682Z,86.57
2023-02-18T21:01:36.543Z,87.05
2023-02-18T21:04:39.010Z,87.06
2023-02-18T21:07:41.411Z,88.26
2023-02-18T21:10:43.997Z,88.58
2023-02-18T21:13:48.014Z,88.75
2023-02-18T21:16:50.478Z,89.21
2023-02-18T21:19:53.216Z,89.25
2023-02-18T21:22:56.419Z,88.87
2023-02-18T21:26:02.695Z,88.56
2023-02-18T21:29:06.617Z,88.92
2023-02-18T21:32:09.457Z,88.86
2023-02-18T21:35:11.875Z,88.65
2023-02-18T21:38:13.957Z,88.19
2023-02-18T21:41:16.723Z,88.29
2023-02-18T21:44:29.923Z,88.30
2023-02-18T21:47:39.463Z,87.70
2023-02-18T21:50:42.515Z,88.81
2023-02-18T21:53:44.655Z,87.89
2023-02-18T21:56:47.824Z,88.27
2023-02-18T21:59:50.901Z,88.76
2023-02-18T22:02:53.405Z,89.21
2023-02-18T22:05:56.642Z,87.66
2023-02-18T22:09:02.183Z,87.09
2023-02-18T22:12:05.677Z,87.65
2023-02-18T22:15:10.084Z,84.31
2023-02-18T22:18:15.427Z,82.68
2023-02-18T22:21:20.743Z,81.83
2023-02-18T22:24:23.879Z,80.08
2023-02-18T22:27:27.784Z,80.11
2023-02-18T22:30:30.639Z,79.55
2023-02-18T22:33:33.806Z,79.54
2023-02-18T22:36:36.450Z,79.88
2023-02-18T22:39:39.409Z,78.20
2023-02-18T22:42:42.321Z,77.89
2023-02-18T22:45:45.144Z,78.21
2023-02-18T22:48:47.761Z,77.65
2023-02-18T22:51:51.778Z,78.13
2023-02-18T22:54:55.094Z,76.84
2023-02-18T22:57:58.492Z,77.21
2023-02-18T23:01:02.403Z,76.91
2023-02-18T23:04:10.354Z,76.62
2023-02-18T23:07:14.234Z,76.98
2023-02-18T23:10:18.335Z,77.74
2023-02-18T23:13:21.638Z,77.28
2023-02-18T23:16:25.384Z,77.01
2023-02-18T23:19:29.584Z,77.04
2023-02-18T23:22:34.449Z,77.68
2023-02-18T23:25:38.745Z,77.80
2023-02-18T23:28:50.330Z,78.27
2023-02-18T23:31:53.552Z,77.87
2023-02-18T23:34:56.785Z,76.31
2023-02-18T23:38:05.538Z,76.92
2023-02-18T23:41:08.878Z,77.14
2023-02-18T23:44:12.658Z,77.32
2023-02-18T23:47:15.685Z,77.16
2023-02-18T23:50:18.930Z,76.09
2023-02-18T23:53:21.838Z,75.05
2023-02-18T23:56:31.486Z,75.57
2023-02-18T23:59:34.771Z,75.67
